createdAt,value
2022-07-29T00:01:01.977Z,34.18
2022-07-29T00:03:28.492Z,34.39
2022-07-29T00:05:54.985Z,34.29
2022-07-29T00:08:21.706Z,34.04
2022-07-29T00:10:48.560Z,34.08
2022-07-29T00:13:15.190Z,34.10
2022-07-29T00:15:41.787Z,34.46
2022-07-29T00:18:08.631Z,34.30
2022-07-29T00:20:35.083Z,34.50
2022-07-29T00:23:01.740Z,34.09
2022-07-29T00:25:28.281Z,34.18
2022-07-29T00:27:54.765Z,34.33
2022-07-29T00:30:21.342Z,34.30
2022-07-29T00:32:47.779Z,34.42
2022-07-29T00:35:32.984Z,34.13
2022-07-29T00:38:00.098Z,34.50
2022-07-29T00:40:28.726Z,34.51
2022-07-29T00:42:55.297Z,33.99
2022-07-29T00:45:23.149Z,34.19
2022-07-29T00:47:49.813Z,34.39
2022-07-29T00:50:16.436Z,34.09
2022-07-29T00:52:44.032Z,34.09
2022-07-29T00:55:15.288Z,34.43
2022-07-29T00:57:43.213Z,34.08
2022-07-29T01:00:15.474Z,34.25
2022-07-29T01:02:41.963Z,34.43
2022-07-29T01:05:08.876Z,34.08
2022-07-29T01:07:37.061Z,34.04
2022-07-29T01:10:08.782Z,34.57
2022-07-29T01:12:36.659Z,34.08
2022-07-29T01:15:05.749Z,34.31
2022-07-29T01:17:52.591Z,34.36
2022-07-29T01:20:51.715Z,34.43
2022-07-29T01:23:39.439Z,34.33
2022-07-29T01:26:33.769Z,34.04
2022-07-29T01:29:12.178Z,34.46
2022-07-29T01:32:00.565Z,34.35
2022-07-29T01:34:44.867Z,34.25
2022-07-29T01:37:50.983Z,34.53
2022-07-29T01:40:25.138Z,33.99
2022-07-29T01:42:53.387Z,34.08
2022-07-29T01:45:29.451Z,34.48
2022-07-29T01:48:10.006Z,34.26
2022-07-29T01:50:41.392Z,34.33
2022-07-29T01:53:11.461Z,34.31
2022-07-29T01:55:43.083Z,34.16
2022-07-29T01:58:11.776Z,33.91
2022-07-29T02:00:40.083Z,34.07
2022-07-29T02:03:12.644Z,34.32
2022-07-29T02:05:41.339Z,33.97
2022-07-29T02:08:09.180Z,34.07
2022-07-29T02:10:37.412Z,34.23
2022-07-29T02:13:05.173Z,34.04
2022-07-29T02:15:33.960Z,34.21
2022-07-29T02:18:13.936Z,34.18
2022-07-29T02:20:43.980Z,33.97
2022-07-29T02:23:13.732Z,33.63
2022-07-29T02:25:43.017Z,34.03
2022-07-29T02:28:09.848Z,33.73
2022-07-29T02:30:41.668Z,33.66
2022-07-29T02:33:11.034Z,33.98
2022-07-29T02:35:38.919Z,33.65
2022-07-29T02:38:24.539Z,33.70
2022-07-29T02:40:52.792Z,33.86
2022-07-29T02:43:22.008Z,33.31
2022-07-29T02:45:53.775Z,33.78
2022-07-29T02:48:26.886Z,33.27
2022-07-29T02:51:02.650Z,33.18
2022-07-29T02:53:34.158Z,33.17
2022-07-29T02:56:05.326Z,33.27
2022-07-29T02:58:34.427Z,33.47
2022-07-29T03:01:05.099Z,33.65
2022-07-29T03:03:38.629Z,33.54
2022-07-29T03:06:06.791Z,32.93
2022-07-29T03:08:33.942Z,33.32
2022-07-29T03:11:01.942Z,33.19
2022-07-29T03:13:29.095Z,32.95
2022-07-29T03:15:56.352Z,32.79
2022-07-29T03:18:23.104Z,32.83
2022-07-29T03:20:49.674Z,33.15
2022-07-29T03:23:21.017Z,32.72
2022-07-29T03:25:47.795Z,33.05
2022-07-29T03:28:14.333Z,32.81
2022-07-29T03:30:44.532Z,32.95
2022-07-29T03:33:13.785Z,32.93
2022-07-29T03:35:40.822Z,32.69
2022-07-29T03:38:07.900Z,32.62
2022-07-29T03:40:43.585Z,32.88
2022-07-29T03:43:11.902Z,32.68
2022-07-29T03:45:39.956Z,32.77
2022-07-29T03:48:13.655Z,32.57
2022-07-29T03:50:40.675Z,32.55
2022-07-29T03:53:07.253Z,32.57
2022-07-29T03:55:41.026Z,32.89
2022-07-29T03:58:09.027Z,32.46
2022-07-29T04:00:37.384Z,32.30
2022-07-29T04:03:05.187Z,32.62
2022-07-29T04:05:37.464Z,32.61
2022-07-29T04:08:04.020Z,32.84
2022-07-29T04:10:32.195Z,32.64
2022-07-29T04:13:00.833Z,32.44
2022-07-29T04:15:31.403Z,32.01
2022-07-29T04:17:58.590Z,32.65
2022-07-29T04:20:25.190Z,32.27
2022-07-29T04:22:51.636Z,32.43
2022-07-29T04:25:18.269Z,32.34
2022-07-29T04:28:01.121Z,32.42
2022-07-29T04:30:27.940Z,32.50
2022-07-29T04:32:54.381Z,32.49
2022-07-29T04:35:21.189Z,32.22
2022-07-29T04:37:47.724Z,32.40
2022-07-29T04:40:14.262Z,32.48
2022-07-29T04:42:46.294Z,32.27
2022-07-29T04:45:13.483Z,32.41
2022-07-29T04:47:40.952Z,32.34
2022-07-29T04:50:08.836Z,32.13
2022-07-29T04:52:36.221Z,32.12
2022-07-29T04:55:04.129Z,32.47
2022-07-29T04:57:30.680Z,32.67
2022-07-29T04:59:57.209Z,32.62
2022-07-29T05:02:23.753Z,32.17
2022-07-29T05:04:50.282Z,32.63
2022-07-29T05:07:16.868Z,32.14
2022-07-29T05:09:43.322Z,32.24
2022-07-29T05:12:10.638Z,32.30
2022-07-29T05:14:37.115Z,32.42
2022-07-29T05:17:03.757Z,32.23
2022-07-29T05:19:30.272Z,32.78
2022-07-29T05:21:56.753Z,32.28
2022-07-29T05:24:23.217Z,32.44
2022-07-29T05:26:49.731Z,32.80
2022-07-29T05:29:42.466Z,32.77
2022-07-29T05:32:03.313Z,32.80
2022-07-29T05:34:29.871Z,32.52
2022-07-29T05:36:56.394Z,32.97
2022-07-29T05:39:48.960Z,32.94
2022-07-29T05:42:11.151Z,33.09
2022-07-29T05:44:39.031Z,33.02
2022-07-29T05:47:06.075Z,32.86
2022-07-29T05:49:32.596Z,33.18
2022-07-29T05:51:59.231Z,32.87
2022-07-29T05:54:26.654Z,33.38
2022-07-29T05:56:53.172Z,33.51
2022-07-29T05:59:19.638Z,33.43
2022-07-29T06:01:46.159Z,33.24
2022-07-29T06:04:12.854Z,33.77
2022-07-29T06:06:39.430Z,33.90
2022-07-29T06:09:12.089Z,33.55
2022-07-29T06:11:39.124Z,33.61
2022-07-29T06:14:05.608Z,33.67
2022-07-29T06:16:32.160Z,33.72
2022-07-29T06:18:58.671Z,33.73
2022-07-29T06:21:25.185Z,33.89
2022-07-29T06:23:51.743Z,33.98
2022-07-29T06:26:18.170Z,34.05
2022-07-29T06:28:44.694Z,34.25
2022-07-29T06:31:11.282Z,34.62
2022-07-29T06:33:37.838Z,34.27
2022-07-29T06:36:06.485Z,34.65
2022-07-29T06:38:34.496Z,34.31
2022-07-29T06:41:13.145Z,34.18
2022-07-29T06:43:52.402Z,34.34
2022-07-29T06:46:23.743Z,34.26
2022-07-29T06:48:51.433Z,34.22
2022-07-29T06:51:22.283Z,34.25
2022-07-29T06:53:59.075Z,34.55
2022-07-29T06:56:29.404Z,34.66
2022-07-29T06:58:55.925Z,34.81
2022-07-29T07:01:22.847Z,35.16
2022-07-29T07:03:49.574Z,35.31
2022-07-29T07:06:16.125Z,35.55
2022-07-29T07:08:42.637Z,35.33
2022-07-29T07:11:09.633Z,35.30
2022-07-29T07:13:36.855Z,35.87
2022-07-29T07:16:04.709Z,35.78
2022-07-29T07:18:31.526Z,35.40
2022-07-29T07:20:58.232Z,35.68
2022-07-29T07:23:24.956Z,35.27
2022-07-29T07:25:52.100Z,35.63
2022-07-29T07:28:19.296Z,35.34
2022-07-29T07:30:52.009Z,35.62
2022-07-29T07:33:18.520Z,35.21
2022-07-29T07:35:45.315Z,35.52
2022-07-29T07:38:11.921Z,35.63
2022-07-29T07:40:38.549Z,35.64
2022-07-29T07:43:05.313Z,35.16
2022-07-29T07:45:33.917Z,35.40
2022-07-29T07:48:01.002Z,35.23
2022-07-29T07:50:27.753Z,35.14
2022-07-29T07:52:58.727Z,35.67
2022-07-29T07:55:26.497Z,35.56
2022-07-29T07:57:53.350Z,35.53
2022-07-29T08:00:19.913Z,35.54
2022-07-29T08:02:50.891Z,35.51
2022-07-29T08:05:20.211Z,35.90
2022-07-29T08:07:47.716Z,35.56
2022-07-29T08:10:36.812Z,35.72
2022-07-29T08:13:05.714Z,35.68
2022-07-29T08:15:32.955Z,35.83
2022-07-29T08:17:59.639Z,35.42
2022-07-29T08:20:26.253Z,35.89
2022-07-29T08:22:54.485Z,35.63
2022-07-29T08:25:21.557Z,35.83
2022-07-29T08:27:48.609Z,35.47
2022-07-29T08:30:16.330Z,35.80
2022-07-29T08:32:53.819Z,35.50
2022-07-29T08:35:22.423Z,35.25
2022-07-29T08:37:48.984Z,35.70
2022-07-29T08:40:15.638Z,35.58
2022-07-29T08:42:42.164Z,35.25
2022-07-29T08:45:09.347Z,35.19
2022-07-29T08:47:40.385Z,35.31
2022-07-29T08:50:09.034Z,34.96
2022-07-29T08:52:40.696Z,35.36
2022-07-29T08:55:08.748Z,35.39
2022-07-29T08:57:37.126Z,35.16
2022-07-29T09:00:11.507Z,35.19
2022-07-29T09:02:46.804Z,35.12
2022-07-29T09:05:14.824Z,35.42
2022-07-29T09:07:44.150Z,34.87
2022-07-29T09:10:11.151Z,35.31
2022-07-29T09:12:38.290Z,35.03
2022-07-29T09:15:05.268Z,35.34
2022-07-29T09:17:49.591Z,34.76
2022-07-29T09:20:18.398Z,34.90
2022-07-29T09:22:50.066Z,35.02
2022-07-29T09:25:42.345Z,35.12
2022-07-29T09:28:13.633Z,34.83
2022-07-29T09:30:52.133Z,35.19
2022-07-29T09:33:18.662Z,35.09
2022-07-29T09:35:57.156Z,35.08
2022-07-29T09:38:23.704Z,34.99
2022-07-29T09:41:05.862Z,34.59
2022-07-29T09:43:33.546Z,34.61
2022-07-29T09:46:13.504Z,34.81
2022-07-29T09:48:40.556Z,34.57
2022-07-29T09:51:20.664Z,34.55
2022-07-29T09:53:49.047Z,34.70
2022-07-29T09:56:15.520Z,34.76
2022-07-29T09:58:41.970Z,34.59
2022-07-29T10:01:08.532Z,34.43
2022-07-29T10:03:51.553Z,34.39
2022-07-29T10:06:18.074Z,34.82
2022-07-29T10:08:44.564Z,34.48
2022-07-29T10:11:16.730Z,34.90
2022-07-29T10:13:47.577Z,34.91
2022-07-29T10:16:15.904Z,34.79
2022-07-29T10:18:44.770Z,34.71
2022-07-29T10:21:22.519Z,34.83
2022-07-29T10:24:01.273Z,34.52
2022-07-29T10:26:29.147Z,34.69
2022-07-29T10:28:56.689Z,34.40
2022-07-29T10:31:36.336Z,34.70
2022-07-29T10:34:28.768Z,34.62
2022-07-29T10:37:13.672Z,34.40
2022-07-29T10:39:53.438Z,34.72
2022-07-29T10:42:33.635Z,34.36
2022-07-29T10:45:01.751Z,34.55
2022-07-29T10:47:28.764Z,34.50
2022-07-29T10:49:59.165Z,34.71
2022-07-29T10:52:57.966Z,34.79
2022-07-29T10:55:39.381Z,34.43
2022-07-29T10:58:27.388Z,34.53
2022-07-29T11:00:56.355Z,34.63
2022-07-29T11:03:49.390Z,34.50
2022-07-29T11:06:16.807Z,34.68
2022-07-29T11:08:44.603Z,34.43
2022-07-29T11:14:14.869Z,34.26
2022-07-29T11:17:17.381Z,34.83
2022-07-29T11:19:49.307Z,34.75
2022-07-29T11:22:36.724Z,34.32
2022-07-29T11:25:43.003Z,34.77
2022-07-29T11:28:22.409Z,34.54
2022-07-29T11:30:53.393Z,34.79
2022-07-29T11:33:37.513Z,34.62
2022-07-29T11:36:19.454Z,34.43
2022-07-29T11:39:36.409Z,34.67
2022-07-29T11:42:32.238Z,34.71
2022-07-29T11:45:44.187Z,34.53
2022-07-29T11:48:27.991Z,34.81
2022-07-29T11:50:48.495Z,34.47
2022-07-29T11:53:16.286Z,34.58
2022-07-29T11:55:51.527Z,34.59
2022-07-29T11:58:25.140Z,34.66
2022-07-29T12:00:53.175Z,34.45
2022-07-29T12:03:35.479Z,34.70
2022-07-29T12:06:18.329Z,34.69
2022-07-29T12:08:45.707Z,34.37
2022-07-29T12:11:21.851Z,34.75
2022-07-29T12:13:49.941Z,34.51
2022-07-29T12:16:16.601Z,34.43
2022-07-29T12:19:02.115Z,34.70
2022-07-29T12:21:29.754Z,34.73
2022-07-29T12:24:01.896Z,34.48
2022-07-29T12:26:32.479Z,34.71
2022-07-29T12:29:02.380Z,34.68
2022-07-29T12:31:42.071Z,34.39
2022-07-29T12:34:09.259Z,34.45
2022-07-29T12:36:36.415Z,34.50
2022-07-29T12:39:03.585Z,34.17
2022-07-29T12:41:30.776Z,34.35
2022-07-29T12:43:57.343Z,34.52
2022-07-29T12:46:23.920Z,34.61
2022-07-29T12:48:55.969Z,34.32
2022-07-29T12:51:29.932Z,34.67
2022-07-29T12:54:14.475Z,34.54
2022-07-29T12:56:43.636Z,34.64
2022-07-29T12:59:16.336Z,34.41
2022-07-29T13:01:43.017Z,34.41
2022-07-29T13:04:09.565Z,34.35
2022-07-29T13:06:41.856Z,34.33
2022-07-29T13:09:11.832Z,34.49
2022-07-29T13:11:48.217Z,34.21
2022-07-29T13:14:45.238Z,34.43
2022-07-29T13:17:17.005Z,34.49
2022-07-29T13:19:44.811Z,34.36
2022-07-29T13:22:16.264Z,34.33
2022-07-29T13:24:51.293Z,34.50
2022-07-29T13:27:19.929Z,34.42
2022-07-29T13:29:47.347Z,34.29
2022-07-29T13:32:14.139Z,34.20
2022-07-29T13:34:41.616Z,34.23
2022-07-29T13:37:08.079Z,34.02
2022-07-29T13:39:34.668Z,34.23
2022-07-29T13:42:01.616Z,34.31
2022-07-29T13:44:28.214Z,34.34
2022-07-29T13:46:54.679Z,34.05
2022-07-29T13:49:21.223Z,33.83
2022-07-29T13:51:47.784Z,34.24
2022-07-29T13:54:14.252Z,33.98
2022-07-29T13:56:40.691Z,33.77
2022-07-29T13:59:07.152Z,33.97
2022-07-29T14:01:33.669Z,34.07
2022-07-29T14:04:00.323Z,33.86
2022-07-29T14:06:27.445Z,33.73
2022-07-29T14:08:56.552Z,33.60
2022-07-29T14:11:23.046Z,33.87
2022-07-29T14:13:49.522Z,33.81
2022-07-29T14:16:16.032Z,33.52
2022-07-29T14:18:42.699Z,33.57
2022-07-29T14:21:09.700Z,33.79
2022-07-29T14:23:37.385Z,33.58
2022-07-29T14:26:08.883Z,33.78
2022-07-29T14:28:41.949Z,33.66
2022-07-29T14:31:08.606Z,33.89
2022-07-29T14:33:35.068Z,33.65
2022-07-29T14:36:01.790Z,33.56
2022-07-29T14:38:28.377Z,33.70
2022-07-29T14:40:54.857Z,33.58
2022-07-29T14:43:21.319Z,33.86
2022-07-29T14:45:48.371Z,33.28
2022-07-29T14:48:14.960Z,33.21
2022-07-29T14:50:41.431Z,33.61
2022-07-29T14:53:07.939Z,33.61
2022-07-29T14:55:34.447Z,33.50
2022-07-29T14:58:09.671Z,33.48
2022-07-29T15:00:37.823Z,33.54
2022-07-29T15:03:05.070Z,33.67
2022-07-29T15:05:32.232Z,33.51
2022-07-29T15:08:00.276Z,33.45
2022-07-29T15:10:29.936Z,33.40
2022-07-29T15:12:57.138Z,33.49
2022-07-29T15:15:23.744Z,33.50
2022-07-29T15:17:50.195Z,33.50
2022-07-29T15:20:16.663Z,32.85
2022-07-29T15:22:43.948Z,33.33
2022-07-29T15:25:10.823Z,33.19
2022-07-29T15:27:37.322Z,32.80
2022-07-29T15:30:04.191Z,33.23
2022-07-29T15:32:30.651Z,33.06
2022-07-29T15:34:57.095Z,32.87
2022-07-29T15:37:23.539Z,33.19
2022-07-29T15:39:50.350Z,32.84
2022-07-29T15:42:17.817Z,32.64
2022-07-29T15:44:44.444Z,33.04
2022-07-29T15:47:10.935Z,33.00
2022-07-29T15:49:46.433Z,32.98
2022-07-29T15:52:25.408Z,33.30
2022-07-29T15:54:56.667Z,33.09
2022-07-29T15:57:24.676Z,32.86
2022-07-29T15:59:51.900Z,33.25
2022-07-29T16:02:18.455Z,33.11
2022-07-29T16:04:44.931Z,33.32
2022-07-29T16:07:11.415Z,33.15
2022-07-29T16:09:37.870Z,33.29
2022-07-29T16:12:10.585Z,33.24
2022-07-29T16:14:42.531Z,33.07
2022-07-29T16:17:09.031Z,32.99
2022-07-29T16:19:41.124Z,33.22
2022-07-29T16:22:07.575Z,33.26
2022-07-29T16:24:34.044Z,33.36
2022-07-29T16:27:01.030Z,33.12
2022-07-29T16:29:27.832Z,33.21
2022-07-29T16:31:54.455Z,33.40
2022-07-29T16:34:21.075Z,32.11
2022-07-29T16:36:48.067Z,31.34
2022-07-29T16:39:14.650Z,31.06
2022-07-29T16:41:41.089Z,31.23
2022-07-29T16:44:07.771Z,31.09
2022-07-29T16:46:37.282Z,31.06
2022-07-29T16:49:05.659Z,30.89
2022-07-29T16:51:34.799Z,31.11
2022-07-29T16:54:01.251Z,30.91
2022-07-29T16:56:27.676Z,31.05
2022-07-29T16:58:54.203Z,30.98
2022-07-29T17:01:20.837Z,30.71
2022-07-29T17:04:07.207Z,30.52
2022-07-29T17:06:38.839Z,30.46
2022-07-29T17:09:06.804Z,30.68
2022-07-29T17:11:52.554Z,30.32
2022-07-29T17:14:24.006Z,30.75
2022-07-29T17:16:51.824Z,30.96
2022-07-29T17:19:30.279Z,30.94
2022-07-29T17:22:06.784Z,30.83
2022-07-29T17:24:37.221Z,30.93
2022-07-29T17:27:04.896Z,30.82
2022-07-29T17:29:31.578Z,30.84
2022-07-29T17:31:59.514Z,30.96
2022-07-29T17:34:26.240Z,30.72
2022-07-29T17:36:52.941Z,30.78
2022-07-29T17:39:19.419Z,30.93
2022-07-29T17:41:46.834Z,30.82
2022-07-29T17:44:13.596Z,30.78
2022-07-29T17:46:40.520Z,31.02
2022-07-29T17:49:07.366Z,30.86
2022-07-29T17:51:33.953Z,30.91
2022-07-29T17:54:00.427Z,30.80
2022-07-29T17:56:26.891Z,31.04
2022-07-29T17:58:53.492Z,30.98
2022-07-29T18:01:20.113Z,31.25
2022-07-29T18:03:47.068Z,31.10
2022-07-29T18:06:13.626Z,30.99
2022-07-29T18:08:40.464Z,30.79
2022-07-29T18:11:07.016Z,30.99
2022-07-29T18:13:33.626Z,30.79
2022-07-29T18:16:00.950Z,30.92
2022-07-29T18:18:27.865Z,31.04
2022-07-29T18:20:54.875Z,31.05
2022-07-29T18:23:21.399Z,30.87
2022-07-29T18:25:47.944Z,31.02
2022-07-29T18:28:14.674Z,30.91
2022-07-29T18:30:41.848Z,31.22
2022-07-29T18:33:21.697Z,31.01
2022-07-29T18:35:50.188Z,30.96
2022-07-29T18:38:17.041Z,31.11
2022-07-29T18:40:45.448Z,31.04
2022-07-29T18:43:12.699Z,31.47
2022-07-29T18:45:39.631Z,31.48
2022-07-29T18:48:08.407Z,31.24
2022-07-29T18:50:39.561Z,31.50
2022-07-29T18:53:06.166Z,31.49
2022-07-29T18:55:32.823Z,31.42
2022-07-29T18:57:59.563Z,31.54
2022-07-29T19:00:27.065Z,31.17
2022-07-29T19:02:53.898Z,31.47
2022-07-29T19:05:20.664Z,31.70
2022-07-29T19:07:47.108Z,31.32
2022-07-29T19:10:13.822Z,32.36
2022-07-29T19:12:40.421Z,33.03
2022-07-29T19:15:08.040Z,32.94
2022-07-29T19:17:34.553Z,33.06
2022-07-29T19:20:01.068Z,33.15
2022-07-29T19:22:27.785Z,32.89
2022-07-29T19:24:54.430Z,32.72
2022-07-29T19:27:20.900Z,32.62
2022-07-29T19:29:47.486Z,32.74
2022-07-29T19:32:14.524Z,32.44
2022-07-29T19:35:10.076Z,32.63
2022-07-29T19:37:37.377Z,32.35
2022-07-29T19:40:04.902Z,32.21
2022-07-29T19:42:31.419Z,31.91
2022-07-29T19:44:57.882Z,32.28
2022-07-29T19:47:24.371Z,32.26
2022-07-29T19:49:50.831Z,32.43
2022-07-29T19:52:17.303Z,32.36
2022-07-29T19:54:43.747Z,32.16
2022-07-29T19:57:10.252Z,32.44
2022-07-29T19:59:37.254Z,32.15
2022-07-29T20:02:04.280Z,32.14
2022-07-29T20:04:30.810Z,31.80
2022-07-29T20:07:01.236Z,32.16
2022-07-29T20:09:28.286Z,31.97
2022-07-29T20:11:54.821Z,32.22
2022-07-29T20:14:21.567Z,32.19
2022-07-29T20:16:48.090Z,32.44
2022-07-29T20:19:14.820Z,32.40
2022-07-29T20:21:41.278Z,32.18
2022-07-29T20:24:08.661Z,32.34
2022-07-29T20:26:35.102Z,32.23
2022-07-29T20:29:05.020Z,32.25
2022-07-29T20:31:32.422Z,32.51
2022-07-29T20:33:59.131Z,32.54
2022-07-29T20:36:25.614Z,32.08
2022-07-29T20:38:52.079Z,32.31
2022-07-29T20:41:18.511Z,32.12
2022-07-29T20:43:45.486Z,32.15
2022-07-29T20:46:12.097Z,31.97
2022-07-29T20:48:39.953Z,32.67
2022-07-29T20:51:06.611Z,32.38
2022-07-29T20:53:33.799Z,32.33
2022-07-29T20:56:00.299Z,32.06
2022-07-29T20:58:26.901Z,32.30
2022-07-29T21:00:53.476Z,32.50
2022-07-29T21:03:19.903Z,32.40
2022-07-29T21:05:46.483Z,32.84
2022-07-29T21:08:13.034Z,33.35
2022-07-29T21:10:39.620Z,33.20
2022-07-29T21:13:06.082Z,33.71
2022-07-29T21:15:32.728Z,33.58
2022-07-29T21:18:09.206Z,33.65
2022-07-29T21:20:35.684Z,33.92
2022-07-29T21:23:02.107Z,34.07
2022-07-29T21:25:28.700Z,34.12
2022-07-29T21:28:14.951Z,34.37
2022-07-29T21:30:41.900Z,34.64
2022-07-29T21:33:08.373Z,34.62
2022-07-29T21:36:06.949Z,35.16
2022-07-29T21:38:21.647Z,35.13
2022-07-29T21:40:50.246Z,35.85
2022-07-29T21:43:17.560Z,35.99
2022-07-29T21:45:50.216Z,36.04
2022-07-29T21:48:18.175Z,36.07
2022-07-29T21:50:44.767Z,35.92
2022-07-29T21:53:11.448Z,35.89
2022-07-29T21:55:41.606Z,36.28
2022-07-29T21:58:08.443Z,36.10
2022-07-29T22:00:35.060Z,36.07
2022-07-29T22:03:03.664Z,35.89
2022-07-29T22:05:31.395Z,36.04
2022-07-29T22:07:58.587Z,35.81
2022-07-29T22:10:26.710Z,36.38
2022-07-29T22:12:54.916Z,35.97
2022-07-29T22:15:22.326Z,36.14
2022-07-29T22:17:48.983Z,35.95
2022-07-29T22:20:15.648Z,36.07
2022-07-29T22:22:42.227Z,36.40
2022-07-29T22:25:09.762Z,36.11
2022-07-29T22:27:36.727Z,36.35
2022-07-29T22:30:07.480Z,36.14
2022-07-29T22:32:34.070Z,36.41
2022-07-29T22:35:00.524Z,35.94
2022-07-29T22:37:27.022Z,36.43
2022-07-29T22:39:53.488Z,35.94
2022-07-29T22:42:20.022Z,35.84
2022-07-29T22:44:46.457Z,36.02
2022-07-29T22:47:12.912Z,36.28
2022-07-29T22:49:39.371Z,36.27
2022-07-29T22:52:06.495Z,36.27
2022-07-29T22:54:32.989Z,36.26
2022-07-29T22:57:01.114Z,35.83
2022-07-29T22:59:27.873Z,36.11
2022-07-29T23:01:54.486Z,36.23
2022-07-29T23:04:23.804Z,35.81
2022-07-29T23:06:51.130Z,35.64
2022-07-29T23:09:17.909Z,35.65
2022-07-29T23:11:44.616Z,36.03
2022-07-29T23:14:11.031Z,35.60
2022-07-29T23:16:37.843Z,36.10
2022-07-29T23:19:04.356Z,35.57
2022-07-29T23:21:31.326Z,35.88
2022-07-29T23:23:57.838Z,35.88
2022-07-29T23:26:24.303Z,35.79
2022-07-29T23:28:50.851Z,35.39
2022-07-29T23:31:17.423Z,35.44
2022-07-29T23:33:43.891Z,35.53
2022-07-29T23:36:10.475Z,35.60
2022-07-29T23:38:40.930Z,35.33
2022-07-29T23:41:09.718Z,35.61
2022-07-29T23:43:37.168Z,35.21
2022-07-29T23:46:03.928Z,35.60
2022-07-29T23:48:31.908Z,35.21
2022-07-29T23:50:58.870Z,35.12
2022-07-29T23:53:25.294Z,35.60
2022-07-29T23:55:51.727Z,35.46
2022-07-29T23:58:18.151Z,35.52
